createdAt,value
2022-09-14T00:00:58.520Z,97687.03
2022-09-14T00:06:30.571Z,97673.22
2022-09-14T00:11:52.743Z,97678.56
2022-09-14T00:17:14.453Z,97674.94
2022-09-14T00:22:36.326Z,97671.13
2022-09-14T00:27:58.501Z,97644.91
2022-09-14T00:33:20.209Z,97628.63
2022-09-14T00:38:42.330Z,97622.63
2022-09-14T00:44:27.041Z,97624.25
2022-09-14T00:49:48.755Z,97611.88
2022-09-14T00:55:14.858Z,97617.50
2022-09-14T01:00:36.621Z,97596.09
2022-09-14T01:06:16.204Z,97583.41
2022-09-14T01:11:58.621Z,97579.66
2022-09-14T01:17:43.788Z,97556.72
2022-09-14T01:23:20.597Z,97566.09
2022-09-14T01:29:09.742Z,97673.00
2022-09-14T01:34:40.178Z,97651.31
2022-09-14T01:40:08.860Z,97650.09
2022-09-14T01:45:32.894Z,97643.69
2022-09-14T01:50:58.140Z,97652.13
2022-09-14T01:56:25.528Z,97635.91
2022-09-14T02:01:55.580Z,97651.63
2022-09-14T02:07:18.746Z,97665.53
2022-09-14T02:12:41.163Z,97674.16
2022-09-14T02:18:04.031Z,97674.69
2022-09-14T02:23:26.541Z,97670.50
2022-09-14T02:28:49.037Z,97649.47
2022-09-14T02:34:38.075Z,97649.81
2022-09-14T02:40:24.129Z,97660.09
2022-09-14T02:46:24.646Z,97657.75
2022-09-14T02:52:13.836Z,97673.81
2022-09-14T02:58:05.798Z,97653.97
2022-09-14T03:03:28.814Z,97634.91
2022-09-14T03:08:52.917Z,97628.94
2022-09-14T03:14:14.773Z,97624.97
2022-09-14T03:19:36.575Z,97629.25
2022-09-14T03:24:58.300Z,97621.47
2022-09-14T03:30:20.559Z,97609.25
2022-09-14T03:35:42.260Z,97602.78
2022-09-14T03:41:10.874Z,97595.31
2022-09-14T03:46:32.819Z,97580.94
2022-09-14T03:51:59.548Z,97581.28
2022-09-14T03:57:21.629Z,97566.06
2022-09-14T04:02:44.430Z,97568.84
2022-09-14T04:08:06.300Z,97565.69
2022-09-14T04:13:28.041Z,97562.88
2022-09-14T04:18:49.796Z,97552.09
2022-09-14T04:24:15.563Z,97546.50
2022-09-14T04:29:38.058Z,97549.97
2022-09-14T04:35:00.728Z,97552.81
2022-09-14T04:40:22.530Z,97548.31
2022-09-14T04:45:44.409Z,97547.16
2022-09-14T04:51:17.015Z,97549.13
2022-09-14T04:56:38.855Z,97550.47
2022-09-14T05:02:00.603Z,97553.78
2022-09-14T05:07:22.342Z,97545.66
2022-09-14T05:12:44.223Z,97548.13
2022-09-14T05:18:06.011Z,97551.13
2022-09-14T05:23:27.717Z,97557.06
2022-09-14T05:28:54.351Z,97580.44
2022-09-14T05:34:16.128Z,97596.19
2022-09-14T05:39:37.883Z,97602.97
2022-09-14T05:44:59.584Z,97598.16
2022-09-14T05:50:21.299Z,97585.41
2022-09-14T05:55:43.175Z,97573.84
2022-09-14T06:01:13.625Z,97568.34
2022-09-14T06:06:35.454Z,97548.81
2022-09-14T06:11:57.190Z,97569.03
2022-09-14T06:17:18.920Z,97568.69
2022-09-14T06:22:40.681Z,97571.47
2022-09-14T06:28:02.655Z,97584.44
2022-09-14T06:33:25.146Z,97585.41
2022-09-14T06:38:49.642Z,97583.91
2022-09-14T06:44:11.389Z,97581.41
2022-09-14T06:49:33.492Z,97579.41
2022-09-14T06:54:55.246Z,97556.53
2022-09-14T07:00:19.175Z,97552.03
2022-09-14T07:05:41.056Z,97547.75
2022-09-14T07:11:04.107Z,97544.28
2022-09-14T07:16:26.918Z,97553.34
2022-09-14T07:21:49.921Z,97557.63
2022-09-14T07:27:11.751Z,97556.25
2022-09-14T07:32:33.606Z,97559.34
2022-09-14T07:37:55.493Z,97547.72
2022-09-14T07:43:17.250Z,97570.09
2022-09-14T07:48:39.117Z,97567.09
2022-09-14T07:54:01.729Z,97560.25
2022-09-14T07:59:35.754Z,97566.75
2022-09-14T08:04:58.518Z,97579.97
2022-09-14T08:10:20.346Z,97582.41
2022-09-14T08:15:42.095Z,97596.78
2022-09-14T08:21:05.922Z,97585.09
2022-09-14T08:26:28.191Z,97598.66
2022-09-14T08:31:52.025Z,97621.16
2022-09-14T08:37:15.080Z,97619.28
2022-09-14T08:42:38.754Z,97624.41
2022-09-14T08:48:00.531Z,97638.03
2022-09-14T08:53:23.216Z,97659.91
2022-09-14T08:58:57.007Z,97644.03
2022-09-14T09:04:34.266Z,97614.38
2022-09-14T09:09:57.939Z,97622.47
2022-09-14T09:15:27.555Z,97613.69
2022-09-14T09:20:52.584Z,97631.00
2022-09-14T09:26:28.827Z,97630.56
2022-09-14T09:31:54.916Z,97631.78
2022-09-14T09:37:23.381Z,97614.72
2022-09-14T09:43:04.812Z,97598.53
2022-09-14T09:48:47.346Z,97588.53
2022-09-14T09:54:26.826Z,97586.97
2022-09-14T09:59:48.950Z,97580.00
2022-09-14T10:05:10.906Z,97574.13
2022-09-14T10:10:35.874Z,97567.03
2022-09-14T10:16:15.819Z,97553.13
2022-09-14T10:22:17.518Z,97549.47
2022-09-14T10:27:49.493Z,97548.78
2022-09-14T10:33:15.106Z,97538.63
2022-09-14T10:39:11.329Z,97516.81
2022-09-14T10:44:43.944Z,97512.19
2022-09-14T10:50:50.025Z,97513.88
2022-09-14T10:56:29.641Z,97498.63
2022-09-14T11:02:13.720Z,97477.50
2022-09-14T11:07:54.227Z,97476.22
2022-09-14T11:13:58.225Z,97475.91
2022-09-14T11:19:44.392Z,97466.69
2022-09-14T11:25:16.676Z,97469.81
2022-09-14T11:30:55.510Z,97466.81
2022-09-14T11:36:25.631Z,97464.47
2022-09-14T11:41:59.670Z,97446.94
2022-09-14T11:47:22.450Z,97442.78
2022-09-14T11:52:44.219Z,97449.81
2022-09-14T11:58:12.317Z,97441.59
2022-09-14T12:03:54.555Z,97446.66
2022-09-14T12:09:24.013Z,97459.16
2022-09-14T12:14:46.881Z,97459.53
2022-09-14T12:20:20.829Z,97468.72
2022-09-14T12:26:12.506Z,97465.91
2022-09-14T12:31:49.533Z,97470.34
2022-09-14T12:37:31.997Z,97478.31
2022-09-14T12:42:54.374Z,97492.00
2022-09-14T12:48:48.164Z,97521.84
2022-09-14T12:54:19.145Z,97539.03
2022-09-14T13:00:16.388Z,97540.41
2022-09-14T13:05:43.722Z,97541.72
2022-09-14T13:11:06.858Z,97525.41
2022-09-14T13:16:40.171Z,97521.38
2022-09-14T13:22:02.672Z,97536.41
2022-09-14T13:27:28.586Z,97547.97
2022-09-14T13:32:53.510Z,97539.44
2022-09-14T13:38:19.525Z,97545.00
2022-09-14T13:43:42.832Z,97549.56
2022-09-14T13:49:07.672Z,97552.22
2022-09-14T13:54:30.027Z,97555.38
2022-09-14T14:00:21.575Z,97548.38
2022-09-14T14:05:43.674Z,97525.91
2022-09-14T14:11:08.347Z,97513.81
2022-09-14T14:16:30.198Z,97513.03
2022-09-14T14:21:54.377Z,97496.00
2022-09-14T14:27:28.238Z,97509.53
2022-09-14T14:32:54.714Z,97525.09
2022-09-14T14:38:16.483Z,97540.00
2022-09-14T14:43:38.457Z,97560.38
2022-09-14T14:49:00.281Z,97559.13
2022-09-14T14:54:22.041Z,97563.19
2022-09-14T14:59:43.922Z,97549.09
2022-09-14T15:05:06.128Z,97544.97
2022-09-14T15:10:29.230Z,97548.16
2022-09-14T15:15:50.987Z,97520.34
2022-09-14T15:21:12.673Z,97510.81
2022-09-14T15:26:34.985Z,97502.66
2022-09-14T15:31:56.942Z,97483.63
2022-09-14T15:37:19.057Z,97485.09
2022-09-14T15:42:40.834Z,97438.19
2022-09-14T15:48:02.783Z,97425.19
2022-09-14T15:53:24.642Z,97438.25
2022-09-14T15:58:48.232Z,97429.09
2022-09-14T16:04:11.858Z,97421.97
2022-09-14T16:09:33.770Z,97407.31
2022-09-14T16:14:55.641Z,97387.16
2022-09-14T16:20:17.716Z,97386.25
2022-09-14T16:25:43.389Z,97393.75
2022-09-14T16:31:11.847Z,97413.34
2022-09-14T16:36:36.663Z,97441.59
2022-09-14T16:41:59.912Z,97442.16
2022-09-14T16:47:21.688Z,97447.16
2022-09-14T16:52:43.388Z,97456.97
2022-09-14T16:58:05.211Z,97448.47
2022-09-14T17:03:31.563Z,97452.75
2022-09-14T17:08:56.046Z,97450.81
2022-09-14T17:14:20.085Z,97451.06
2022-09-14T17:19:43.830Z,97466.84
2022-09-14T17:25:06.134Z,97452.13
2022-09-14T17:30:28.309Z,97459.09
2022-09-14T17:35:52.156Z,97454.84
2022-09-14T17:41:22.104Z,97457.06
2022-09-14T17:46:52.198Z,97466.34
2022-09-14T17:52:14.955Z,97461.56
2022-09-14T17:57:36.680Z,97463.88
2022-09-14T18:02:58.631Z,97463.03
2022-09-14T18:08:20.560Z,97464.06
2022-09-14T18:13:43.881Z,97476.00
2022-09-14T18:19:06.287Z,97482.00
2022-09-14T18:24:28.238Z,97485.16
2022-09-14T18:29:49.959Z,97478.56
2022-09-14T18:35:13.702Z,97476.41
2022-09-14T18:40:38.445Z,97482.94
2022-09-14T18:46:00.671Z,97475.63
2022-09-14T18:51:22.555Z,97475.94
2022-09-14T18:56:44.661Z,97485.25
2022-09-14T19:02:06.531Z,97484.25
2022-09-14T19:07:28.418Z,97475.66
2022-09-14T19:12:50.245Z,97481.09
2022-09-14T19:18:11.982Z,97487.56
2022-09-14T19:23:34.981Z,97485.44
2022-09-14T19:28:56.714Z,97481.66
2022-09-14T19:34:20.486Z,97476.38
2022-09-14T19:39:42.318Z,97487.59
2022-09-14T19:45:04.502Z,97511.97
2022-09-14T19:50:26.224Z,97516.16
2022-09-14T19:55:48.062Z,97512.03
2022-09-14T20:01:10.975Z,97523.13
2022-09-14T20:06:40.201Z,97530.09
2022-09-14T20:12:02.213Z,97531.13
2022-09-14T20:17:24.103Z,97532.81
2022-09-14T20:22:46.119Z,97535.09
2022-09-14T20:28:07.993Z,97533.31
2022-09-14T20:33:30.354Z,97526.53
2022-09-14T20:38:55.241Z,97524.84
2022-09-14T20:44:21.834Z,97534.13
2022-09-14T20:49:43.624Z,97531.66
2022-09-14T20:55:06.196Z,97533.84
2022-09-14T21:00:27.933Z,97538.41
2022-09-14T21:05:52.803Z,97534.44
2022-09-14T21:11:20.478Z,97525.47
2022-09-14T21:16:45.951Z,97516.03
2022-09-14T21:22:07.760Z,97513.94
2022-09-14T21:27:31.419Z,97516.91
2022-09-14T21:32:53.191Z,97516.75
2022-09-14T21:38:14.909Z,97524.19
2022-09-14T21:43:41.072Z,97514.59
2022-09-14T21:49:03.302Z,97511.94
2022-09-14T21:54:25.165Z,97513.97
2022-09-14T21:59:46.962Z,97512.31
2022-09-14T22:05:08.806Z,97500.41
2022-09-14T22:10:30.565Z,97506.34
2022-09-14T22:15:52.472Z,97498.41
2022-09-14T22:21:15.098Z,97498.41
2022-09-14T22:26:39.568Z,97502.91
2022-09-14T22:32:01.532Z,97518.44
2022-09-14T22:37:23.243Z,97541.94
2022-09-14T22:42:44.960Z,97539.28
2022-09-14T22:48:06.683Z,97553.25
2022-09-14T22:53:29.366Z,97559.69
2022-09-14T22:58:52.199Z,97562.31
2022-09-14T23:04:14.527Z,97553.56
2022-09-14T23:09:36.379Z,97563.84
2022-09-14T23:14:58.142Z,97570.31
2022-09-14T23:20:20.033Z,97572.31
2022-09-14T23:25:42.288Z,97569.31
2022-09-14T23:31:05.809Z,97579.59
2022-09-14T23:36:28.429Z,97588.72
2022-09-14T23:41:50.259Z,97594.69
2022-09-14T23:47:12.048Z,97590.22
2022-09-14T23:52:33.796Z,97575.31
2022-09-14T23:57:55.825Z,97573.00
